createdAt,value
2018-03-14T00:00:56.884Z,35.90
2018-03-14T00:03:25.188Z,38.07
2018-03-14T00:05:53.622Z,32.03
2018-03-14T00:08:22.724Z,40.60
2018-03-14T00:10:51.786Z,32.30
2018-03-14T00:13:20.121Z,29.83
2018-03-14T00:15:48.439Z,28.20
2018-03-14T00:18:16.770Z,28.67
2018-03-14T00:20:45.080Z,31.00
2018-03-14T00:23:13.609Z,27.40
2018-03-14T00:25:42.739Z,32.27
2018-03-14T00:28:11.082Z,29.80
2018-03-14T00:30:39.361Z,30.53
2018-03-14T00:33:07.652Z,29.57
2018-03-14T00:35:35.935Z,31.37
2018-03-14T00:38:05.161Z,33.63
2018-03-14T00:40:33.592Z,29.00
2018-03-14T00:43:01.897Z,34.97
2018-03-14T00:45:30.190Z,29.73
2018-03-14T00:47:58.540Z,33.87
2018-03-14T00:50:26.887Z,34.23
2018-03-14T00:52:55.174Z,35.43
2018-03-14T00:55:23.516Z,41.00
2018-03-14T00:57:52.558Z,39.30
2018-03-14T01:00:20.856Z,37.33
2018-03-14T01:02:49.130Z,38.77
2018-03-14T01:05:17.443Z,40.40
2018-03-14T01:07:46.489Z,42.63
2018-03-14T01:10:14.782Z,41.53
2018-03-14T01:12:43.075Z,41.80
2018-03-14T01:15:11.417Z,39.00
2018-03-14T01:17:40.415Z,41.47
2018-03-14T01:20:08.721Z,44.30
2018-03-14T01:22:36.994Z,41.27
2018-03-14T01:25:05.401Z,49.63
2018-03-14T01:27:34.617Z,44.33
2018-03-14T01:30:03.016Z,46.73
2018-03-14T01:32:31.307Z,48.83
2018-03-14T01:35:00.474Z,49.40
2018-03-14T01:37:29.581Z,47.07
2018-03-14T01:39:57.859Z,47.73
2018-03-14T01:42:26.328Z,47.20
2018-03-14T01:44:54.618Z,45.33
2018-03-14T01:47:22.918Z,47.50
2018-03-14T01:49:51.190Z,50.57
2018-03-14T01:52:19.600Z,49.97
2018-03-14T01:54:47.887Z,48.20
2018-03-14T01:57:16.206Z,49.93
2018-03-14T01:59:44.498Z,57.13
2018-03-14T02:02:12.794Z,45.90
2018-03-14T02:04:41.824Z,58.93
2018-03-14T02:07:10.141Z,55.67
2018-03-14T02:09:38.425Z,53.63
2018-03-14T02:12:07.497Z,49.93
2018-03-14T02:14:35.802Z,56.70
2018-03-14T02:17:04.869Z,53.30
2018-03-14T02:19:33.244Z,54.53
2018-03-14T02:22:01.539Z,58.07
2018-03-14T02:24:30.594Z,62.73
2018-03-14T02:26:59.003Z,57.73
2018-03-14T02:29:27.288Z,59.77
2018-03-14T02:31:56.344Z,62.07
2018-03-14T02:34:24.634Z,65.47
2018-03-14T02:37:01.838Z,59.57
2018-03-14T02:39:30.280Z,55.67
2018-03-14T02:41:58.599Z,62.30
2018-03-14T02:44:27.757Z,59.57
2018-03-14T02:46:56.045Z,63.07
2018-03-14T02:49:24.888Z,64.57
2018-03-14T02:51:53.159Z,58.70
2018-03-14T02:54:21.451Z,64.30
2018-03-14T02:56:49.721Z,60.50
2018-03-14T02:59:18.090Z,61.30
2018-03-14T03:01:46.394Z,59.93
2018-03-14T03:04:14.695Z,62.33
2018-03-14T03:06:42.965Z,72.30
2018-03-14T03:09:11.243Z,67.50
2018-03-14T03:11:39.528Z,59.40
2018-03-14T03:14:07.869Z,60.37
2018-03-14T03:16:36.142Z,66.20
2018-03-14T03:19:04.422Z,62.03
2018-03-14T03:21:32.823Z,73.70
2018-03-14T03:24:01.131Z,66.33
2018-03-14T03:26:29.434Z,58.57
2018-03-14T03:28:57.718Z,69.13
2018-03-14T03:31:26.011Z,67.43
2018-03-14T03:33:54.450Z,60.03
2018-03-14T03:36:22.747Z,64.23
2018-03-14T03:38:51.034Z,66.27
2018-03-14T03:41:19.390Z,63.63
2018-03-14T03:43:47.662Z,68.37
2018-03-14T03:46:15.963Z,66.20
2018-03-14T03:48:44.257Z,61.50
2018-03-14T03:51:12.554Z,60.83
2018-03-14T03:53:41.626Z,66.70
2018-03-14T03:56:09.924Z,73.03
2018-03-14T03:58:40.514Z,69.23
2018-03-14T04:01:08.979Z,74.67
2018-03-14T04:03:37.276Z,68.50
2018-03-14T04:06:05.575Z,67.43
2018-03-14T04:08:34.671Z,70.53
2018-03-14T04:11:03.711Z,71.87
2018-03-14T04:13:32.020Z,75.53
2018-03-14T04:16:00.311Z,69.30
2018-03-14T04:18:29.371Z,67.83
2018-03-14T04:20:57.651Z,65.57
2018-03-14T04:23:25.952Z,63.30
2018-03-14T04:25:54.995Z,71.47
2018-03-14T04:28:23.276Z,70.23
2018-03-14T04:30:51.568Z,67.47
2018-03-14T04:33:19.860Z,69.27
2018-03-14T04:35:48.260Z,73.13
2018-03-14T04:38:16.542Z,72.17
2018-03-14T04:40:45.619Z,74.67
2018-03-14T04:43:14.660Z,68.37
2018-03-14T04:45:42.950Z,77.70
2018-03-14T04:48:11.237Z,74.80
2018-03-14T04:50:39.521Z,64.77
2018-03-14T04:53:07.812Z,64.87
2018-03-14T04:55:36.864Z,82.53
2018-03-14T04:58:05.157Z,68.63
2018-03-14T05:00:33.442Z,72.63
2018-03-14T05:03:01.788Z,76.17
2018-03-14T05:05:30.076Z,70.50
2018-03-14T05:07:58.355Z,73.93
2018-03-14T05:10:26.785Z,69.57
2018-03-14T05:12:55.822Z,76.47
2018-03-14T05:15:24.121Z,82.57
2018-03-14T05:17:52.391Z,73.93
2018-03-14T05:20:20.697Z,85.43
2018-03-14T05:22:49.826Z,79.80
2018-03-14T05:25:18.271Z,82.93
2018-03-14T05:27:47.318Z,98.50
2018-03-14T05:30:15.923Z,96.67
2018-03-14T05:32:44.202Z,102.40
2018-03-14T05:35:12.523Z,97.17
2018-03-14T05:37:40.810Z,98.73
2018-03-14T05:40:09.104Z,103.23
2018-03-14T05:42:37.420Z,103.10
2018-03-14T05:45:06.478Z,105.53
2018-03-14T05:47:34.818Z,106.63
2018-03-14T05:50:03.096Z,102.77
2018-03-14T05:52:31.433Z,111.70
2018-03-14T05:55:00.523Z,118.87
2018-03-14T05:57:29.649Z,116.93
2018-03-14T05:59:58.088Z,110.87
2018-03-14T06:02:26.406Z,108.77
2018-03-14T06:04:54.773Z,118.23
2018-03-14T06:07:23.097Z,135.97
2018-03-14T06:09:51.389Z,141.57
2018-03-14T06:12:20.476Z,130.47
2018-03-14T06:14:48.760Z,138.60
2018-03-14T06:17:17.050Z,134.87
2018-03-14T06:19:46.114Z,114.10
2018-03-14T06:22:14.439Z,143.03
2018-03-14T06:24:42.702Z,141.90
2018-03-14T06:27:11.038Z,141.63
2018-03-14T06:29:39.357Z,135.07
2018-03-14T06:32:07.700Z,126.83
2018-03-14T06:34:36.014Z,114.60
2018-03-14T06:37:04.334Z,140.13
2018-03-14T06:39:32.648Z,138.00
2018-03-14T06:42:01.702Z,144.10
2018-03-14T06:44:30.006Z,117.97
2018-03-14T06:46:58.267Z,115.17
2018-03-14T06:49:26.618Z,133.80
2018-03-14T06:51:54.905Z,125.30
2018-03-14T06:54:23.203Z,129.63
2018-03-14T06:56:51.519Z,113.27
2018-03-14T06:59:31.692Z,123.93
2018-03-14T07:02:11.798Z,89.83
2018-03-14T07:07:39.436Z,114.77
2018-03-14T07:10:07.838Z,111.77
2018-03-14T07:12:36.106Z,116.93
2018-03-14T07:15:04.418Z,116.37
2018-03-14T07:17:32.790Z,103.67
2018-03-14T07:20:01.944Z,106.57
2018-03-14T07:22:30.314Z,123.07
2018-03-14T07:24:58.818Z,135.07
2018-03-14T07:27:27.163Z,184.47
2018-03-14T07:29:55.446Z,296.67
2018-03-14T07:32:23.756Z,276.63
2018-03-14T07:34:52.016Z,190.00
2018-03-14T07:37:20.319Z,237.90
2018-03-14T07:39:49.372Z,258.33
2018-03-14T07:42:17.682Z,209.37
2018-03-14T07:44:46.800Z,277.73
2018-03-14T07:47:15.077Z,186.13
2018-03-14T07:49:43.408Z,129.13
2018-03-14T07:52:11.798Z,104.43
2018-03-14T07:54:40.843Z,112.33
2018-03-14T07:57:09.246Z,107.37
2018-03-14T07:59:37.543Z,117.23
2018-03-14T08:02:06.628Z,103.83
2018-03-14T08:04:34.906Z,97.70
2018-03-14T08:07:03.234Z,114.77
2018-03-14T08:09:31.539Z,138.67
2018-03-14T08:11:59.850Z,118.93
2018-03-14T08:14:28.890Z,121.50
2018-03-14T08:16:57.182Z,103.70
2018-03-14T08:19:25.640Z,98.77
2018-03-14T08:21:54.204Z,91.97
2018-03-14T08:24:22.491Z,83.27
2018-03-14T08:26:50.776Z,84.97
2018-03-14T08:29:19.073Z,85.00
2018-03-14T08:31:48.134Z,77.03
2018-03-14T08:34:16.463Z,67.37
2018-03-14T08:36:44.735Z,67.73
2018-03-14T08:39:13.058Z,73.80
2018-03-14T08:41:41.388Z,69.03
2018-03-14T08:44:10.451Z,71.93
2018-03-14T08:46:38.729Z,70.27
2018-03-14T08:49:07.028Z,72.73
2018-03-14T08:51:35.367Z,61.70
2018-03-14T08:54:03.682Z,60.10
2018-03-14T08:56:32.781Z,62.03
2018-03-14T08:59:01.237Z,62.90
2018-03-14T09:01:29.515Z,66.97
2018-03-14T09:03:57.786Z,63.93
2018-03-14T09:06:26.237Z,53.20
2018-03-14T09:08:54.529Z,58.70
2018-03-14T09:11:22.819Z,59.83
2018-03-14T09:13:51.247Z,64.20
2018-03-14T09:16:19.750Z,57.47
2018-03-14T09:18:48.062Z,57.23
2018-03-14T09:21:16.347Z,57.40
2018-03-14T09:23:44.630Z,56.93
2018-03-14T09:26:12.930Z,49.83
2018-03-14T09:28:42.016Z,48.90
2018-03-14T09:31:10.290Z,49.27
2018-03-14T09:33:38.650Z,52.90
2018-03-14T09:36:07.011Z,45.43
2018-03-14T09:38:36.854Z,47.03
2018-03-14T09:41:05.913Z,49.83
2018-03-14T09:43:34.217Z,51.07
2018-03-14T09:46:03.274Z,42.30
2018-03-14T09:48:31.580Z,38.40
2018-03-14T09:51:00.614Z,40.67
2018-03-14T09:53:28.963Z,39.23
2018-03-14T09:55:57.261Z,34.90
2018-03-14T09:58:25.600Z,23.63
2018-03-14T10:00:53.869Z,21.00
2018-03-14T10:03:23.674Z,21.23
2018-03-14T10:05:51.958Z,21.97
2018-03-14T10:08:21.088Z,19.77
2018-03-14T10:10:49.376Z,19.03
2018-03-14T10:13:17.676Z,18.87
2018-03-14T10:15:45.999Z,20.27
2018-03-14T10:18:14.317Z,27.43
2018-03-14T10:20:42.590Z,24.90
2018-03-14T10:23:10.870Z,24.97
2018-03-14T10:25:39.392Z,20.60
2018-03-14T10:28:08.358Z,24.43
2018-03-14T10:30:36.696Z,22.43
2018-03-14T10:33:05.117Z,22.67
2018-03-14T10:35:33.419Z,22.27
2018-03-14T10:38:02.471Z,20.20
2018-03-14T10:40:30.825Z,22.97
2018-03-14T10:42:59.082Z,22.13
2018-03-14T10:45:27.375Z,20.20
2018-03-14T10:47:55.669Z,24.37
2018-03-14T10:50:24.142Z,22.03
2018-03-14T10:52:52.447Z,19.53
2018-03-14T10:55:20.749Z,20.20
2018-03-14T10:57:49.806Z,20.73
2018-03-14T11:00:18.206Z,21.70
2018-03-14T11:02:47.262Z,21.10
2018-03-14T11:05:15.563Z,23.00
2018-03-14T11:07:43.880Z,22.13
2018-03-14T11:10:12.145Z,19.43
2018-03-14T11:12:40.454Z,19.70
2018-03-14T11:15:08.730Z,18.77
2018-03-14T11:17:37.066Z,18.60
2018-03-14T11:20:05.385Z,18.83
2018-03-14T11:22:33.736Z,17.20
2018-03-14T11:25:02.012Z,17.20
2018-03-14T11:27:30.312Z,19.03
2018-03-14T11:29:58.610Z,17.07
2018-03-14T11:32:26.963Z,14.27
2018-03-14T11:34:55.339Z,13.73
2018-03-14T11:37:23.659Z,15.47
2018-03-14T11:39:51.998Z,13.47
2018-03-14T11:42:20.331Z,12.87
2018-03-14T11:44:48.579Z,14.77
2018-03-14T11:47:16.871Z,14.30
2018-03-14T11:49:45.228Z,13.83
2018-03-14T11:52:13.513Z,11.13
2018-03-14T11:54:41.928Z,12.07
2018-03-14T11:57:10.259Z,15.50
2018-03-14T11:59:38.539Z,13.63
2018-03-14T12:02:07.601Z,13.67
2018-03-14T12:04:35.887Z,14.10
2018-03-14T12:07:05.759Z,15.47
2018-03-14T12:09:34.051Z,13.00
2018-03-14T12:12:02.352Z,13.23
2018-03-14T12:14:30.831Z,11.00
2018-03-14T12:16:59.102Z,11.13
2018-03-14T12:19:27.426Z,12.77
2018-03-14T12:21:55.699Z,12.60
2018-03-14T12:24:24.019Z,10.43
2018-03-14T12:26:52.311Z,11.47
2018-03-14T12:29:20.612Z,12.07
2018-03-14T12:31:49.659Z,12.00
2018-03-14T12:34:18.119Z,11.90
2018-03-14T12:36:46.409Z,13.20
2018-03-14T12:39:14.713Z,14.63
2018-03-14T12:41:42.988Z,13.57
2018-03-14T12:44:11.452Z,11.43
2018-03-14T12:46:39.884Z,14.77
2018-03-14T12:49:08.200Z,14.13
2018-03-14T12:51:36.503Z,13.83
2018-03-14T12:54:04.829Z,13.13
2018-03-14T12:56:33.111Z,14.37
2018-03-14T12:59:01.417Z,13.90
2018-03-14T13:01:29.724Z,14.40
2018-03-14T13:03:58.775Z,18.37
2018-03-14T13:06:27.075Z,18.37
2018-03-14T13:08:56.143Z,15.13
2018-03-14T13:11:24.456Z,17.93
2018-03-14T13:13:52.701Z,16.30
2018-03-14T13:16:21.030Z,15.03
2018-03-14T13:18:49.355Z,13.93
2018-03-14T13:21:17.692Z,16.53
2018-03-14T13:23:45.988Z,19.87
2018-03-14T13:26:14.287Z,15.67
2018-03-14T13:28:42.575Z,13.73
2018-03-14T13:31:10.874Z,14.67
2018-03-14T13:33:39.931Z,11.20
2018-03-14T13:36:08.437Z,11.03
2018-03-14T13:38:37.622Z,12.87
2018-03-14T13:41:05.914Z,14.20
2018-03-14T13:43:34.237Z,10.83
2018-03-14T13:46:02.507Z,10.57
2018-03-14T13:48:30.842Z,11.87
2018-03-14T13:51:00.707Z,12.57
2018-03-14T13:53:28.975Z,11.10
2018-03-14T13:55:57.242Z,12.67
2018-03-14T13:58:25.570Z,11.90
2018-03-14T14:00:54.630Z,11.43
2018-03-14T14:03:22.910Z,13.53
2018-03-14T14:05:51.404Z,11.93
2018-03-14T14:08:20.552Z,11.73
2018-03-14T14:10:48.830Z,15.67
2018-03-14T14:13:17.134Z,12.50
2018-03-14T14:15:46.365Z,12.10
2018-03-14T14:18:15.418Z,12.63
2018-03-14T14:20:43.780Z,13.47
2018-03-14T14:23:12.085Z,10.93
2018-03-14T14:25:40.620Z,10.83
2018-03-14T14:28:08.889Z,10.80
2018-03-14T14:30:37.179Z,9.30
2018-03-14T14:33:05.451Z,14.53
2018-03-14T14:35:33.780Z,14.27
2018-03-14T14:38:02.111Z,13.73
2018-03-14T14:40:30.406Z,14.17
2018-03-14T14:42:58.687Z,13.63
2018-03-14T14:45:27.037Z,13.37
2018-03-14T14:47:55.414Z,14.73
2018-03-14T14:50:23.737Z,12.83
2018-03-14T14:52:52.604Z,13.30
2018-03-14T14:55:21.626Z,14.23
2018-03-14T14:57:49.972Z,10.17
2018-03-14T15:00:18.304Z,16.00
2018-03-14T15:02:46.637Z,12.87
2018-03-14T15:05:16.437Z,12.20
2018-03-14T15:07:45.870Z,12.77
2018-03-14T15:10:15.855Z,12.10
2018-03-14T15:12:44.922Z,12.50
2018-03-14T15:15:13.215Z,10.90
2018-03-14T15:17:41.508Z,13.00
2018-03-14T15:20:09.799Z,9.80
2018-03-14T15:22:38.058Z,12.60
2018-03-14T15:25:06.353Z,15.17
2018-03-14T15:27:34.671Z,10.90
2018-03-14T15:30:02.966Z,13.77
2018-03-14T15:32:31.271Z,11.03
2018-03-14T15:35:00.325Z,11.67
2018-03-14T15:37:28.627Z,12.07
2018-03-14T15:39:57.037Z,11.90
2018-03-14T15:42:26.421Z,12.53
2018-03-14T15:44:54.867Z,11.20
2018-03-14T15:47:23.408Z,11.33
2018-03-14T15:49:52.446Z,12.80
2018-03-14T15:52:20.739Z,12.60
2018-03-14T15:54:49.027Z,9.50
2018-03-14T15:57:17.345Z,8.73
2018-03-14T15:59:45.601Z,11.53
2018-03-14T16:02:13.907Z,10.83
2018-03-14T16:04:42.192Z,12.43
2018-03-14T16:07:10.526Z,11.27
2018-03-14T16:09:39.612Z,10.37
2018-03-14T16:12:07.890Z,11.13
2018-03-14T16:14:36.972Z,12.70
2018-03-14T16:17:05.231Z,13.57
2018-03-14T16:19:34.312Z,10.80
2018-03-14T16:22:02.587Z,11.67
2018-03-14T16:24:30.893Z,10.43
2018-03-14T16:26:59.956Z,19.40
2018-03-14T16:29:28.235Z,9.80
2018-03-14T16:31:56.599Z,8.73
2018-03-14T16:34:24.970Z,9.47
2018-03-14T16:36:53.268Z,9.00
2018-03-14T16:39:21.582Z,11.30
2018-03-14T16:41:49.868Z,9.23
2018-03-14T16:44:18.375Z,10.00
2018-03-14T16:46:46.654Z,7.37
2018-03-14T16:49:14.943Z,8.47
2018-03-14T16:51:43.220Z,8.30
2018-03-14T16:54:13.032Z,9.37
2018-03-14T16:56:41.327Z,8.70
2018-03-14T16:59:10.379Z,8.60
2018-03-14T17:01:38.647Z,9.10
2018-03-14T17:04:06.961Z,9.23
2018-03-14T17:06:35.238Z,9.40
2018-03-14T17:09:03.474Z,8.27
2018-03-14T17:11:31.766Z,11.27
2018-03-14T17:14:00.138Z,10.60
2018-03-14T17:16:28.442Z,11.27
2018-03-14T17:18:56.727Z,10.67
2018-03-14T17:21:25.793Z,10.13
2018-03-14T17:23:54.144Z,12.53
2018-03-14T17:26:22.431Z,12.60
2018-03-14T17:28:50.799Z,11.50
2018-03-14T17:31:19.086Z,11.30
2018-03-14T17:33:47.367Z,11.33
2018-03-14T17:36:15.670Z,13.27
2018-03-14T17:38:43.963Z,10.50
2018-03-14T17:41:12.546Z,10.33
2018-03-14T17:43:41.612Z,10.73
2018-03-14T17:46:09.897Z,15.67
2018-03-14T17:48:39.092Z,9.80
2018-03-14T17:51:08.155Z,9.93
2018-03-14T17:53:36.467Z,9.17
2018-03-14T17:56:04.785Z,11.43
2018-03-14T17:58:33.050Z,10.10
2018-03-14T18:01:01.328Z,14.20
2018-03-14T18:03:29.644Z,8.13
2018-03-14T18:05:57.952Z,10.60
2018-03-14T18:08:27.026Z,9.00
2018-03-14T18:10:55.392Z,11.30
2018-03-14T18:13:23.801Z,10.30
2018-03-14T18:15:52.843Z,9.60
2018-03-14T18:18:21.111Z,9.90
2018-03-14T18:20:49.458Z,11.43
2018-03-14T18:23:17.770Z,10.77
2018-03-14T18:25:46.031Z,9.03
2018-03-14T18:28:14.349Z,13.97
2018-03-14T18:30:42.603Z,12.43
2018-03-14T18:33:10.857Z,13.57
2018-03-14T18:35:39.145Z,13.07
2018-03-14T18:38:07.444Z,16.20
2018-03-14T18:40:37.283Z,12.93
2018-03-14T18:43:06.355Z,15.57
2018-03-14T18:45:35.467Z,16.60
2018-03-14T18:48:04.515Z,14.90
2018-03-14T18:50:32.797Z,14.93
2018-03-14T18:53:01.088Z,15.93
2018-03-14T18:55:29.394Z,14.40
2018-03-14T18:57:57.701Z,14.03
2018-03-14T19:00:26.126Z,14.27
2018-03-14T19:02:54.391Z,14.50
2018-03-14T19:05:22.736Z,15.67
2018-03-14T19:07:51.025Z,15.67
2018-03-14T19:10:19.492Z,13.77
2018-03-14T19:12:47.803Z,12.70
2018-03-14T19:15:16.264Z,17.37
2018-03-14T19:17:44.573Z,13.33
2018-03-14T19:20:13.648Z,16.70
2018-03-14T19:22:41.951Z,13.87
2018-03-14T19:25:11.030Z,16.47
2018-03-14T19:27:40.157Z,15.73
2018-03-14T19:30:08.377Z,16.77
2018-03-14T19:32:36.699Z,15.47
2018-03-14T19:35:04.993Z,16.40
2018-03-14T19:37:33.284Z,15.53
2018-03-14T19:40:01.611Z,13.57
2018-03-14T19:42:30.702Z,15.07
2018-03-14T19:44:59.767Z,15.03
2018-03-14T19:47:28.090Z,14.53
2018-03-14T19:49:56.366Z,16.73
2018-03-14T19:52:24.723Z,15.53
2018-03-14T19:54:53.777Z,16.97
2018-03-14T19:57:22.102Z,17.33
2018-03-14T19:59:50.443Z,16.47
2018-03-14T20:02:18.783Z,18.87
2018-03-14T20:04:47.111Z,15.10
2018-03-14T20:07:15.400Z,18.77
2018-03-14T20:09:44.634Z,16.33
2018-03-14T20:12:12.948Z,16.03
2018-03-14T20:14:41.258Z,17.30
2018-03-14T20:17:09.570Z,19.90
2018-03-14T20:19:37.884Z,16.33
2018-03-14T20:22:06.171Z,16.80
2018-03-14T20:24:35.256Z,18.40
2018-03-14T20:27:03.574Z,19.13
2018-03-14T20:29:32.021Z,18.17
2018-03-14T20:32:01.290Z,17.97
2018-03-14T20:34:29.628Z,18.67
2018-03-14T20:36:58.746Z,18.43
2018-03-14T20:39:27.061Z,21.30
2018-03-14T20:41:56.149Z,19.57
2018-03-14T20:44:24.471Z,18.53
2018-03-14T20:46:52.767Z,19.57
2018-03-14T20:49:21.096Z,20.63
2018-03-14T20:51:49.446Z,20.90
2018-03-14T20:54:17.728Z,22.83
2018-03-14T20:56:46.787Z,23.20
2018-03-14T20:59:15.084Z,22.13
2018-03-14T21:01:43.503Z,22.63
2018-03-14T21:04:12.534Z,23.20
2018-03-14T21:06:40.939Z,19.93
2018-03-14T21:09:09.212Z,21.90
2018-03-14T21:11:37.545Z,21.43
2018-03-14T21:14:05.852Z,21.70
2018-03-14T21:16:34.169Z,25.50
2018-03-14T21:19:03.284Z,19.87
2018-03-14T21:21:31.681Z,17.97
2018-03-14T21:24:00.200Z,21.13
2018-03-14T21:26:29.292Z,20.87
2018-03-14T21:28:57.641Z,19.23
2018-03-14T21:31:25.980Z,16.70
2018-03-14T21:33:54.250Z,16.53
2018-03-14T21:36:22.541Z,19.50
2018-03-14T21:38:50.858Z,17.67
2018-03-14T21:41:19.309Z,16.80
2018-03-14T21:43:47.603Z,18.57
2018-03-14T21:46:16.268Z,14.80
2018-03-14T21:48:45.583Z,14.23
2018-03-14T21:51:13.973Z,15.90
2018-03-14T21:53:42.171Z,17.40
2018-03-14T21:56:11.217Z,17.30
2018-03-14T21:58:39.628Z,16.37
2018-03-14T22:01:07.865Z,16.70
2018-03-14T22:03:36.161Z,16.20
2018-03-14T22:06:04.500Z,15.80
2018-03-14T22:08:32.868Z,17.37
2018-03-14T22:11:01.140Z,16.50
2018-03-14T22:13:29.443Z,18.83
2018-03-14T22:15:57.715Z,21.03
2018-03-14T22:18:26.126Z,16.10
2018-03-14T22:20:54.449Z,19.83
2018-03-14T22:23:22.847Z,18.30
2018-03-14T22:25:51.390Z,20.67
2018-03-14T22:28:20.420Z,20.37
2018-03-14T22:30:48.712Z,21.03
2018-03-14T22:33:17.000Z,21.83
2018-03-14T22:35:45.377Z,22.00
2018-03-14T22:38:13.649Z,20.97
2018-03-14T22:40:41.962Z,21.70
2018-03-14T22:43:10.999Z,20.07
2018-03-14T22:45:39.316Z,20.83
2018-03-14T22:48:07.604Z,23.83
2018-03-14T22:50:36.658Z,21.43
2018-03-14T22:53:04.955Z,20.57
2018-03-14T22:55:34.011Z,21.83
2018-03-14T22:58:02.352Z,19.23
2018-03-14T23:00:31.368Z,27.93
2018-03-14T23:02:59.658Z,22.23
2018-03-14T23:05:27.979Z,26.60
2018-03-14T23:07:57.193Z,28.50
2018-03-14T23:10:25.553Z,29.70
2018-03-14T23:12:53.859Z,22.87
2018-03-14T23:15:22.129Z,22.40
2018-03-14T23:17:50.412Z,24.53
2018-03-14T23:20:18.691Z,23.60
2018-03-14T23:22:46.993Z,26.40
2018-03-14T23:25:15.273Z,25.50
2018-03-14T23:27:43.612Z,24.90
2018-03-14T23:30:12.627Z,25.07
2018-03-14T23:32:41.539Z,24.37
2018-03-14T23:35:09.809Z,26.27
2018-03-14T23:37:38.275Z,27.47
2018-03-14T23:40:06.556Z,24.37
2018-03-14T23:42:34.839Z,26.00
2018-03-14T23:45:03.117Z,24.13
2018-03-14T23:47:32.207Z,27.60
2018-03-14T23:50:00.484Z,25.80
2018-03-14T23:52:28.742Z,24.30
2018-03-14T23:54:57.066Z,26.23
2018-03-14T23:57:26.269Z,21.30
2018-03-14T23:59:55.466Z,26.50
